Home   Weather   City of Moscow   Past weeks
Flag for USA

Past Weather in City of Moscow, Tennessee, USA — Yesterday and Last 2 Weeks

Currently: 73 °F. Sunny. (Weather station: Olive Branch Airport, USA). See more current weather

Past Weather in City of Moscow — Graph

°F

City of Moscow Temperature Yesterday

Maximum temperature yesterday: 84 °F (at 12:50 pm)
Minimum temperature yesterday: 72 °F (at 5:55 am)
Average temperature yesterday: 77 °F

High & Low Weather Summary for the Past Weeks

 TemperatureHumidityPressure
High95 °F (Jun 15, 1:50 pm)100% (Jun 4, 5:15 am)30.12 "Hg (Jun 4, 5:15 am)
Low57 °F (Jun 12, 4:35 am)22% (Jun 7, 3:50 pm)29.69 "Hg (Jun 5, 5:50 pm)
Average75 °F74%29.92 "Hg
* Reported Jun 4 5:15 am — Jun 19 5:55 am, City of Moscow. Weather by CustomWeather, © 2024

Note: Actual official high and low records may vary slightly from our data, if they occured in-between our weather recording intervals... More about our weather records

City of Moscow Weather History for the Previous 24 Hours

Scroll right to see more
 ConditionsComfort  
Time TempWeatherWind HumidityBarometerVisibility
5:55 am
Wed, Jun 19
73 °FSunny.7 mph89%30.12 "Hg10 mi
5:35 am73 °FSunny.7 mph89%30.10 "Hg10 mi
5:15 am73 °FSunny.5 mph89%30.10 "Hg10 mi
4:55 am73 °FSunny.6 mph89%30.09 "Hg10 mi
4:35 am73 °FClear.8 mph89%30.08 "Hg10 mi
3:55 am73 °FClear.7 mph94%30.08 "Hg10 mi
3:35 am73 °FClear.6 mph94%30.07 "Hg10 mi
2:55 am73 °FClear.6 mph94%30.07 "Hg10 mi
2:35 am73 °FMild.5 mph94%30.07 "Hg10 mi
2:15 am75 °FMild.3 mph89%30.07 "Hg10 mi
1:55 am75 °FClear.No wind89%30.07 "Hg10 mi
1:35 am75 °FClear.5 mph89%30.07 "Hg10 mi
1:15 am75 °FClear.5 mph89%30.07 "Hg10 mi
12:35 am75 °FClear.5 mph89%30.07 "Hg10 mi
11:55 pm
Tue, Jun 18
77 °FWarm.5 mph89%30.07 "Hg10 mi
11:35 pm77 °FPassing clouds.5 mph89%30.07 "Hg10 mi
11:15 pm77 °FWarm.No wind89%30.07 "Hg10 mi
10:55 pm77 °FWarm.No wind89%30.07 "Hg10 mi
10:35 pm77 °FWarm.No wind89%30.06 "Hg10 mi
10:15 pm77 °FClear.No wind89%30.06 "Hg10 mi
9:55 pm77 °FClear.No wind89%30.05 "Hg10 mi
9:35 pm77 °FClear.No wind89%30.06 "Hg10 mi
7:50 pm79 °FClear.6 mph84%30.03 "Hg10 mi
6:50 pm81 °FSunny.6 mph79%30.04 "Hg10 mi
5:50 pm81 °FSunny.5 mph79%30.04 "Hg10 mi
4:50 pm82 °FSunny.8 mph70%30.05 "Hg10 mi
3:50 pm72 °FSunny.8 mph100%30.06 "Hg10 mi
2:50 pm84 °FSunny.12 mph62%30.07 "Hg10 mi
1:50 pm82 °FSunny.9 mph70%30.07 "Hg10 mi
12:50 pm84 °FSunny.9 mph70%30.07 "Hg10 mi
11:50 am79 °FPassing clouds.6 mph84%30.08 "Hg10 mi
10:50 am79 °FPassing clouds.7 mph89%30.07 "Hg10 mi
9:50 am77 °FSunny.6 mph89%30.08 "Hg10 mi
8:50 am77 °FSunny.7 mph89%30.07 "Hg10 mi
Weather by CustomWeather, © 2024

See weather overview